Map

Track Data

SID SEASON NUMBER BASIN SUBBASIN NAME ISO_TIME NATURE LAT LON WMO_WIND WMO_PRES WMO_AGENCY TRACK_TYPE DIST2LAND LANDFALL IFLAG USA_AGENCY USA_ATCF_ID USA_LAT USA_LON USA_RECORD USA_STATUS USA_WIND USA_PRES USA_SSHS USA_R34_NE USA_R34_SE USA_R34_SW USA_R34_NW USA_R50_NE USA_R50_SE USA_R50_SW USA_R50_NW USA_R64_NE USA_R64_SE USA_R64_SW USA_R64_NW USA_POCI USA_ROCI USA_RMW USA_EYE TOKYO_LAT TOKYO_LON TOKYO_GRADE TOKYO_WIND TOKYO_PRES TOKYO_R50_DIR TOKYO_R50_LONG TOKYO_R50_SHORT TOKYO_R30_DIR TOKYO_R30_LONG TOKYO_R30_SHORT TOKYO_LAND CMA_LAT CMA_LON CMA_CAT CMA_WIND CMA_PRES HKO_LAT HKO_LON HKO_CAT HKO_WIND HKO_PRES NEWDELHI_LAT NEWDELHI_LON NEWDELHI_GRADE NEWDELHI_WIND NEWDELHI_PRES NEWDELHI_CI NEWDELHI_DP NEWDELHI_POCI REUNION_LAT REUNION_LON REUNION_TYPE REUNION_WIND REUNION_PRES REUNION_TNUM REUNION_CI REUNION_RMW REUNION_R34_NE REUNION_R34_SE REUNION_R34_SW REUNION_R34_NW REUNION_R50_NE REUNION_R50_SE REUNION_R50_SW REUNION_R50_NW REUNION_R64_NE REUNION_R64_SE REUNION_R64_SW REUNION_R64_NW BOM_LAT BOM_LON BOM_TYPE BOM_WIND BOM_PRES BOM_TNUM BOM_CI BOM_RMW BOM_R34_NE BOM_R34_SE BOM_R34_SW BOM_R34_NW BOM_R50_NE BOM_R50_SE BOM_R50_SW BOM_R50_NW BOM_R64_NE BOM_R64_SE BOM_R64_SW BOM_R64_NW BOM_ROCI BOM_POCI BOM_EYE BOM_POS_METHOD BOM_PRES_METHOD NADI_LAT NADI_LON NADI_CAT NADI_WIND NADI_PRES WELLINGTON_LAT WELLINGTON_LON WELLINGTON_WIND WELLINGTON_PRES DS824_LAT DS824_LON DS824_STAGE DS824_WIND DS824_PRES TD9636_LAT TD9636_LON TD9636_STAGE TD9636_WIND TD9636_PRES TD9635_LAT TD9635_LON TD9635_WIND TD9635_PRES TD9635_ROCI NEUMANN_LAT NEUMANN_LON NEUMANN_CLASS NEUMANN_WIND NEUMANN_PRES MLC_LAT MLC_LON MLC_CLASS MLC_WIND MLC_PRES USA_GUST BOM_GUST BOM_GUST_PER REUNION_GUST REUNION_GUST_PER USA_SEAHGT USA_SEARAD_NE USA_SEARAD_SE USA_SEARAD_SW USA_SEARAD_NW STORM_SPEED STORM_DIR
1955065S17184 1955 16 SP MM NOT_NAMED 1955-03-05 12:00:00 TS -17.4000 184.400 main 483 451 O________OO___ jtwc_sh SH201955 -17.4000 -175.600 -1 -17.4000 184.400 TC -17.4000 -175.600 2 6 270
1955065S17184 1955 16 SP MM NOT_NAMED 1955-03-05 15:00:00 TS -17.3997 184.101 main 451 419 P________PP___ SH201955 -17.4001 -175.903 -1 -17.4001 -175.903 TC -17.3987 -175.891 2 6 270
1955065S17184 1955 16 SP MM NOT_NAMED 1955-03-05 18:00:00 TS -17.3993 183.805 main 419 388 O________OP___ jtwc_sh SH201955 -17.4000 -176.200 -1 -17.4000 183.800 TC -17.3978 -176.185 2 6 270
1955065S17184 1955 16 SP MM NOT_NAMED 1955-03-05 21:00:00 TS -17.3993 183.509 main 388 357 P________PP___ SH201955 -17.3999 -176.493 -1 -17.3999 -176.493 TC -17.3980 -176.487 2 6 270
1955065S17184 1955 16 SP MM NOT_NAMED 1955-03-06 00:00:00 TS -17.4000 183.200 main 357 325 O________OO___ jtwc_sh SH201955 -17.4000 -176.800 -1 -17.4000 183.200 TC -17.4000 -176.800 2 6 270
1955065S17184 1955 16 SP MM NOT_NAMED 1955-03-06 03:00:00 TS -17.3968 182.862 main 325 284 P________PP___ SH201955 -17.3925 -177.143 -1 -17.3925 -177.143 TC -17.4055 -177.128 2 7 269
1955065S17184 1955 16 SP MM NOT_NAMED 1955-03-06 06:00:00 TS -17.4066 182.510 main 284 253 O________OP___ jtwc_sh SH201955 -17.4000 -177.500 -1 -17.4000 182.500 TC -17.4197 -177.470 2 7 266
1955065S17184 1955 16 SP MM NOT_NAMED 1955-03-06 09:00:00 TS -17.4396 182.162 main 253 216 P________PP___ SH201955 -17.4349 -177.843 -1 -17.4349 -177.843 TC -17.4492 -177.828 2 7 262
1955065S17184 1955 16 SP MM NOT_NAMED 1955-03-06 12:00:00 TS -17.5000 181.800 main 216 182 O________OO___ jtwc_sh SH201955 -17.5000 -178.200 -1 -17.5000 181.800 TC -17.5000 -178.200 2 7 259
1955065S17184 1955 16 SP MM NOT_NAMED 1955-03-06 15:00:00 TS -17.5851 181.402 main 182 154 P________PP___ SH201955 -17.5925 -178.592 -1 -17.5925 -178.592 TC -17.5705 -178.610 2 8 256
1955065S17184 1955 16 SP MM NOT_NAMED 1955-03-06 18:00:00 TS -17.6876 180.990 main 154 131 O________OP___ jtwc_sh SH201955 -17.7000 -179.000 -1 -17.7000 181.000 TC -17.6628 -179.030 2 8 256
1955065S17184 1955 16 SP MM NOT_NAMED 1955-03-06 21:00:00 TS -17.7862 180.578 main 134 123 P________PP___ SH201955 -17.7925 -179.415 -1 -17.7925 -179.415 TC -17.7737 -179.435 2 8 254
1955065S17184 1955 16 SP MM NOT_NAMED 1955-03-07 00:00:00 TS -17.9000 180.200 main 127 124 O________OO___ jtwc_sh SH201955 -17.9000 -179.800 -1 -17.9000 180.200 TC -17.9000 -179.800 2 7 249
1955065S17184 1955 16 SP MM NOT_NAMED 1955-03-07 03:00:00 TS -18.0387 179.876 main 127 95 P________PP___ SH201955 -18.0424 179.870 -1 -18.0424 179.870 TC -18.0313 179.887 2 6 243
1955065S17184 1955 16 SP MM NOT_NAMED 1955-03-07 06:00:00 TS -18.1924 179.606 main 95 77 O________OP___ jtwc_sh SH201955 -18.2000 179.600 -1 -18.2000 179.600 TC -18.1772 179.617 2 6 237
1955065S17184 1955 16 SP MM NOT_NAMED 1955-03-07 09:00:00 TS -18.3448 179.387 main 77 69 P________PP___ SH201955 -18.3499 179.385 -1 -18.3499 179.385 TC -18.3345 179.390 2 5 231
1955065S17184 1955 16 SP MM NOT_NAMED 1955-03-07 12:00:00 TS -18.5000 179.200 main 69 61 O________OO___ jtwc_sh SH201955 -18.5000 179.200 -1 -18.5000 179.200 TC -18.5000 179.200 2 5 237
1955065S17184 1955 16 SP MM NOT_NAMED 1955-03-07 15:00:00 TS -18.6021 178.966 main 64 59 P________PP___ SH201955 -18.6425 178.978 -1 -18.6425 178.978 TC -18.5214 178.944 2 5 241
1955065S17184 1955 16 SP MM NOT_NAMED 1955-03-07 18:00:00 TS -18.7240 178.779 main 67 64 O________OP___ jtwc_sh SH201955 -18.8000 178.800 -1 -18.8000 178.800 TC -18.5721 178.737 2 4 230
1955065S17184 1955 16 SP MM NOT_NAMED 1955-03-07 21:00:00 TS -18.8455 178.658 main 74 74 P________PP___ SH201955 -18.8874 178.668 -1 -18.8874 178.668 TC -18.7618 178.636 2 5 190
1955065S17184 1955 16 SP MM NOT_NAMED 1955-03-08 00:00:00 TS -19.2000 178.700 main 113 113 O________OO___ jtwc_sh SH201955 -19.2000 178.700 -1 -19.2000 178.700 TC -19.2000 178.700 2 12 166
1955065S17184 1955 16 SP MM NOT_NAMED 1955-03-08 03:00:00 TS -19.9780 178.959 main 207 207 P________PP___ SH201955 -19.9425 178.953 -1 -19.9425 178.953 TC -20.0491 178.972 2 20 160
1955065S17184 1955 16 SP MM NOT_NAMED 1955-03-08 06:00:00 TS -21.0469 179.405 main 327 327 O________OP___ jtwc_sh SH201955 -21.0000 179.400 -1 -21.0000 179.400 TC -21.1408 179.414 2 25 158
1955065S17184 1955 16 SP MM NOT_NAMED 1955-03-08 09:00:00 TS -22.2790 179.961 main 485 485 P________PP___ SH201955 -22.2501 179.954 -1 -22.2501 179.954 TC -22.3369 179.975 2 27 156
1955065S17184 1955 16 SP MM NOT_NAMED 1955-03-08 12:00:00 TS -23.5000 180.600 main 632 632 O________OO___ jtwc_sh SH201955 -23.5000 -179.400 -1 -23.5000 180.600 TC -23.5000 -179.400 2 25 152
1955065S17184 1955 16 SP MM NOT_NAMED 1955-03-08 15:00:00 TS -24.4646 181.252 main 763 763 P________PP___ SH201955 -24.4597 -178.756 -1 -24.4597 -178.756 TC -24.4745 -178.730 2 22 147
1955065S17184 1955 16 SP MM NOT_NAMED 1955-03-08 18:00:00 TS -25.3291 181.926 main 870 870 O________OP___ jtwc_sh SH201955 -25.3000 -178.100 -1 -25.3000 181.900 TC -25.3872 -178.022 2 21 145
1955065S17184 1955 16 SP MM NOT_NAMED 1955-03-08 21:00:00 TS -26.1920 182.598 main 990 990 P________PP___ SH201955 -26.1725 -177.427 -1 -26.1725 -177.427 TC -26.2310 -177.353 2 20 146
1955065S17184 1955 16 SP MM NOT_NAMED 1955-03-09 00:00:00 TS -27.0000 183.200 main 1096 1096 O________OO___ jtwc_sh SH201955 -27.0000 -176.800 -1 -27.0000 183.200 TC -27.0000 -176.800 2 19 147
1955065S17184 1955 16 SP MM NOT_NAMED 1955-03-09 03:00:00 TS -27.7934 183.768 main 1202 1145 P________PP___ SH201955 -27.8025 -176.188 -1 -27.8025 -176.188 TC -27.7751 -176.319 2 17 151
1955065S17184 1955 16 SP MM NOT_NAMED 1955-03-09 06:00:00 TS -28.4901 184.138 main 1145 1099 O________OP___ jtwc_sh SH201955 -28.5000 -175.800 -1 -28.5000 184.200 TC -28.4704 -175.986 2 13 162
1955065S17184 1955 16 SP MM NOT_NAMED 1955-03-09 09:00:00 TS -29.0679 184.234 main 1089 1041 P________PP___ SH201955 -29.0740 -175.719 -1 -29.0740 -175.719 TC -29.0556 -175.860 2 10 187
1955065S17184 1955 16 SP MM NOT_NAMED 1955-03-09 12:00:00 TS -29.5000 184.000 main 1041 989 O________OO___ jtwc_sh SH201955 -29.5000 -176.000 -1 -29.5000 184.000 TC -29.5000 -176.000 2 10 222
1955065S17184 1955 16 SP MM NOT_NAMED 1955-03-09 15:00:00 TS -29.8209 183.443 main 985 937 P________PP___ SH201955 -29.8255 -176.602 -1 -29.8255 -176.602 TC -29.8118 -176.468 2 13 247
1955065S17184 1955 16 SP MM NOT_NAMED 1955-03-09 18:00:00 TS -29.9930 182.670 main 937 909 O________OP___ jtwc_sh SH201955 -30.0000 -177.400 -1 -30.0000 182.600 TC -29.9790 -177.191 2 14 261
1955065S17184 1955 16 SP MM NOT_NAMED 1955-03-09 21:00:00 TS -30.0453 181.880 main 909 867 P________PP___ SH201955 -30.0524 -178.158 -1 -30.0524 -178.158 TC -30.0310 -178.044 2 14 270
1955065S17184 1955 16 SP MM NOT_NAMED 1955-03-10 00:00:00 TS -30.0000 181.100 main 867 833 O________OO___ jtwc_sh SH201955 -30.0000 -178.900 -1 -30.0000 181.100 TC -30.0000 -178.900 2 13 276
1955065S17184 1955 16 SP MM NOT_NAMED 1955-03-10 03:00:00 TS -29.9229 180.435 main 829 800 P________PP___ SH201955 -29.9219 -179.565 -1 -29.9219 -179.565 TC -29.9248 -179.566 2 11 280
1955065S17184 1955 16 SP MM NOT_NAMED 1955-03-10 06:00:00 TS -29.7950 179.796 main 800 774 O________OP___ jtwc_sh SH201955 -29.8000 179.800 -1 -29.8000 179.800 TC -29.7851 179.789 2 11 284
1955065S17184 1955 16 SP MM NOT_NAMED 1955-03-10 09:00:00 TS -29.6424 179.155 main 783 753 P________PP___ SH201955 -29.6496 179.157 -1 -29.6496 179.157 TC -29.6279 179.150 2 12 285
1955065S17184 1955 16 SP MM NOT_NAMED 1955-03-10 12:00:00 TS -29.5000 178.500 main 753 726 O________OO___ jtwc_sh SH201955 -29.5000 178.500 -1 -29.5000 178.500 TC -29.5000 178.500 2 12 283
1955065S17184 1955 16 SP MM NOT_NAMED 1955-03-10 15:00:00 TS -29.3760 177.800 main 726 696 P________PP___ SH201955 -29.3623 177.807 -1 -29.3623 177.807 TC -29.4034 177.785 2 12 278
1955065S17184 1955 16 SP MM NOT_NAMED 1955-03-10 18:00:00 TS -29.3169 177.087 main 696 662 O________OP___ jtwc_sh SH201955 -29.3000 177.100 -1 -29.3000 177.100 TC -29.3506 177.060 2 12 271
1955065S17184 1955 16 SP MM NOT_NAMED 1955-03-10 21:00:00 TS -29.3457 176.375 main 662 612 P________PP___ SH201955 -29.3324 176.385 -1 -29.3324 176.385 TC -29.3723 176.356 2 12 261
1955065S17184 1955 16 SP MM NOT_NAMED 1955-03-11 00:00:00 TS -29.5000 175.700 main 612 560 O________OO___ jtwc_sh SH201955 -29.5000 175.700 -1 -29.5000 175.700 TC -29.5000 175.700 2 12 249
1955065S17184 1955 16 SP MM NOT_NAMED 1955-03-11 03:00:00 TS -29.7906 175.073 main 560 499 P________PP___ SH201955 -29.8048 175.063 -1 -29.8048 175.063 TC -29.7622 175.095 2 12 237
1955065S17184 1955 16 SP MM NOT_NAMED 1955-03-11 06:00:00 TS -30.1763 174.513 main 499 444 O________OP___ jtwc_sh SH201955 -30.2000 174.500 -1 -30.2000 174.500 TC -30.1290 174.540 2 12 229
1955065S17184 1955 16 SP MM NOT_NAMED 1955-03-11 09:00:00 TS -30.5803 174.017 main 444 394 P________PP___ SH201955 -30.5923 174.005 -1 -30.5923 174.005 TC -30.5564 174.041 2 11 224
1955065S17184 1955 16 SP MM NOT_NAMED 1955-03-11 12:00:00 TS -31.0000 173.600 main 394 346 O________OO___ jtwc_sh SH201955 -31.0000 173.600 -1 -31.0000 173.600 TC -31.0000 173.600 2 10 218
1955065S17184 1955 16 SP MM NOT_NAMED 1955-03-11 15:00:00 TS -31.3995 173.272 main 346 301 P________PP___ SH201955 -31.3997 173.284 -1 -31.3997 173.284 TC -31.3991 173.247 2 10 213
1955065S17184 1955 16 SP MM NOT_NAMED 1955-03-11 18:00:00 TS -31.8017 172.982 main 301 256 O________OP___ jtwc_sh SH201955 -31.8000 173.000 -1 -31.8000 173.000 TC -31.8050 172.946 2 10 212
1955065S17184 1955 16 SP MM NOT_NAMED 1955-03-11 21:00:00 TS -32.2076 172.669 main 256 213 P________PP___ SH201955 -32.2072 172.680 -1 -32.2072 172.680 TC -32.2085 172.647 2 10 216
1955065S17184 1955 16 SP MM NOT_NAMED 1955-03-12 00:00:00 TS -32.6000 172.300 main 213 186 O________OO___ jtwc_sh SH201955 -32.6000 172.300 -1 -32.6000 172.300 TC -32.6000 172.300 2 10 224
1955065S17184 1955 16 SP MM NOT_NAMED 1955-03-12 03:00:00 TS -32.9559 171.826 main 182 173 P________PP___ SH201955 -32.9574 171.830 -1 -32.9574 171.830 TC -32.9529 171.820 2 11 230
1955065S17184 1955 16 SP MM NOT_NAMED 1955-03-12 06:00:00 TS -33.2978 171.296 main 179 177 O________OP___ jtwc_sh SH201955 -33.3000 171.300 -1 -33.3000 171.300 TC -33.2935 171.287 2 11 233
1955065S17184 1955 16 SP MM NOT_NAMED 1955-03-12 09:00:00 TS -33.6407 170.745 main 201 196 P________PP___ SH201955 -33.6424 170.750 -1 -33.6424 170.750 TC -33.6372 170.735 2 12 232
1955065S17184 1955 16 SP MM NOT_NAMED 1955-03-12 12:00:00 TS -34.0000 170.200 main 227 227 O________OO___ jtwc_sh SH201955 -34.0000 170.200 -1 -34.0000 170.200 TC -34.0000 170.200 2 12 230
1955065S17184 1955 16 SP MM NOT_NAMED 1955-03-12 15:00:00 TS -34.3966 169.673 main 265 265 P________PP___ SH201955 -34.3849 169.677 -1 -34.3849 169.677 TC -34.4199 169.665 2 12 226
1955065S17184 1955 16 SP MM NOT_NAMED 1955-03-12 18:00:00 TS -34.8193 169.187 main 312 312 O________OP___ jtwc_sh SH201955 -34.8000 169.200 -1 -34.8000 169.200 TC -34.8580 169.160 2 12 221
1955065S17184 1955 16 SP MM NOT_NAMED 1955-03-12 21:00:00 TS -35.2690 168.740 main 365 365 P________PP___ SH201955 -35.2575 168.748 -1 -35.2575 168.748 TC -35.2920 168.725 2 11 216
1955065S17184 1955 16 SP MM NOT_NAMED 1955-03-13 00:00:00 TS -35.7000 168.400 main 403 403 O________OO___ jtwc_sh SH201955 -35.7000 168.400 -1 -35.7000 168.400 TC -35.7000 168.400 2 9 209
1955065S17184 1955 16 SP MM NOT_NAMED 1955-03-13 03:00:00 TS -36.0698 168.187 main 436 436 P________PP___ SH201955 -36.0723 168.182 -1 -36.0723 168.182 TC -36.0647 168.196 2 7 199
1955065S17184 1955 16 SP MM NOT_NAMED 1955-03-13 06:00:00 TS -36.4004 168.103 main 458 458 O________OP___ jtwc_sh SH201955 -36.4000 168.100 -1 -36.4000 168.100 TC -36.4011 168.110 2 6 185
1955065S17184 1955 16 SP MM NOT_NAMED 1955-03-13 09:00:00 TS -36.7140 168.124 main 474 472 P________PP___ SH201955 -36.7150 168.127 -1 -36.7150 168.127 TC -36.7120 168.119 2 6 172
1955065S17184 1955 16 SP MM NOT_NAMED 1955-03-13 12:00:00 TS -37.0000 168.200 main 484 484 O________OO___ jtwc_sh SH201955 -37.0000 168.200 -1 -37.0000 168.200 TC -37.0000 168.200 2 5 175
1955065S17184 1955 16 SP MM NOT_NAMED 1955-03-13 15:00:00 TS -37.2339 168.164 main 494 494 P________PP___ SH201955 -37.2573 168.156 -1 -37.2573 168.156 TC -37.1872 168.180 2 5 177
1955065S17184 1955 16 SP MM NOT_NAMED 1955-03-13 18:00:00 TS -37.4556 168.214 main 505 485 O________OP___ jtwc_sh SH201955 -37.5000 168.200 -1 -37.5000 168.200 TC -37.3669 168.242 2 5 153
1955065S17184 1955 16 SP MM NOT_NAMED 1955-03-13 21:00:00 TS -37.6588 168.431 main 477 423 P________PP___ SH201955 -37.6816 168.418 -1 -37.6816 168.418 TC -37.6133 168.457 2 8 135
1955065S17184 1955 16 SP MM NOT_NAMED 1955-03-14 00:00:00 TS -38.0000 168.900 main 423 333 O________OO___ jtwc_sh SH201955 -38.0000 168.900 -1 -38.0000 168.900 TC -38.0000 168.900 2 14 135
1955065S17184 1955 16 SP MM NOT_NAMED 1955-03-14 03:00:00 TS -38.6283 169.670 main 327 209 P________PP___ SH201955 -38.6175 169.680 -1 -38.6175 169.680 TC -38.6501 169.649 2 20 135
1955065S17184 1955 16 SP MM NOT_NAMED 1955-03-14 06:00:00 TS -39.4098 170.680 main 204 81 O________OP___ jtwc_sh SH201955 -39.4000 170.700 -1 -39.4000 170.700 TC -39.4295 170.641 2 23 134
1955065S17184 1955 16 SP MM NOT_NAMED 1955-03-14 09:00:00 TS -40.2294 171.804 main 75 0 P________PP___ SH201955 -40.2224 171.811 -1 -40.2224 171.811 TC -40.2434 171.790 2 24 132
1955065S17184 1955 16 SP MM NOT_NAMED 1955-03-14 12:00:00 TS -41.0000 173.000 main 0 0 O________OO___ jtwc_sh SH201955 -41.0000 173.000 -1 -41.0000 173.000 TC -41.0000 173.000 2 23 128
1955065S17184 1955 16 SP MM NOT_NAMED 1955-03-14 15:00:00 TS -41.6114 174.164 main 0 0 P________PP___ SH201955 -41.6013 174.153 -1 -41.6013 174.153 TC -41.6317 174.185 2 21 123
1955065S17184 1955 16 SP MM NOT_NAMED 1955-03-14 18:00:00 TS -42.1177 175.313 main 55 55 O________OP___ jtwc_sh SH201955 -42.1000 175.300 -1 -42.1000 175.300 TC -42.1532 175.338 2 19 120
1955065S17184 1955 16 SP MM NOT_NAMED 1955-03-14 21:00:00 TS -42.5726 176.454 main 143 143 P________PP___ SH201955 -42.5598 176.446 -1 -42.5598 176.446 TC -42.5983 176.471 2 19 118
1955065S17184 1955 16 SP MM NOT_NAMED 1955-03-15 00:00:00 TS -43.0000 177.600 main 236 O________OO___ jtwc_sh SH201955 -43.0000 177.600 -1 -43.0000 177.600 TC -43.0000 177.600 2 19 117

Digital Typhoon Data and Search

About IBTrACS Database

This database is a web-friendly format of International Best Track Archive for Climate Stewardship (IBTrACS), a global best track data archive curated by NOAA dating back to 1842.

Updated: 2021-12-01